createdAt,value
2019-02-06T00:00:47.831Z,3.66
2019-02-06T00:01:47.834Z,3.63
2019-02-06T00:02:47.801Z,3.74
2019-02-06T00:03:47.806Z,3.67
2019-02-06T00:04:47.832Z,3.70
2019-02-06T00:05:47.786Z,3.63
2019-02-06T00:06:47.824Z,3.62
2019-02-06T00:07:47.770Z,3.69
2019-02-06T00:08:47.759Z,3.60
2019-02-06T00:09:47.788Z,3.54
2019-02-06T00:10:47.721Z,3.54
2019-02-06T00:11:47.742Z,3.59
2019-02-06T00:12:47.711Z,3.46
2019-02-06T00:13:47.719Z,3.44
2019-02-06T00:14:47.773Z,3.45
2019-02-06T00:15:47.711Z,3.49
2019-02-06T00:16:47.678Z,3.48
2019-02-06T00:17:47.664Z,3.45
2019-02-06T00:18:47.692Z,3.45
2019-02-06T00:19:47.658Z,3.48
2019-02-06T00:20:47.629Z,3.45
2019-02-06T00:21:47.664Z,3.37
2019-02-06T00:22:47.610Z,3.48
2019-02-06T00:23:47.591Z,3.37
2019-02-06T00:24:47.610Z,3.37
2019-02-06T00:25:47.579Z,3.45
2019-02-06T00:26:47.551Z,3.48
2019-02-06T00:27:47.663Z,3.33
2019-02-06T00:28:47.538Z,3.36
2019-02-06T00:29:47.534Z,3.33
2019-02-06T00:30:47.569Z,3.36
2019-02-06T00:31:47.508Z,3.32
2019-02-06T00:32:47.500Z,3.30
2019-02-06T00:33:47.477Z,3.30
2019-02-06T00:34:47.513Z,3.35
2019-02-06T00:35:47.461Z,3.23
2019-02-06T00:36:47.473Z,3.26
2019-02-06T00:37:47.446Z,3.30
2019-02-06T00:38:47.489Z,3.33
2019-02-06T00:39:47.462Z,3.35
2019-02-06T00:40:47.456Z,3.30
2019-02-06T00:41:47.408Z,3.27
2019-02-06T00:42:47.382Z,3.25
2019-02-06T00:43:47.371Z,3.27
2019-02-06T00:44:47.433Z,3.23
2019-02-06T00:45:47.365Z,3.29
2019-02-06T00:46:47.339Z,3.22
2019-02-06T00:47:47.364Z,3.27
2019-02-06T00:48:47.314Z,3.23
2019-02-06T00:49:47.294Z,3.15
2019-02-06T00:50:47.329Z,3.14
2019-02-06T00:51:47.349Z,3.12
2019-02-06T00:52:47.290Z,3.22
2019-02-06T00:53:47.309Z,3.09
2019-02-06T00:54:47.290Z,3.11
2019-02-06T00:55:47.265Z,3.11
2019-02-06T00:56:47.254Z,3.17
2019-02-06T00:57:47.345Z,3.11
2019-02-06T00:58:47.193Z,3.04
2019-02-06T00:59:47.201Z,3.09
2019-02-06T01:00:47.269Z,2.96
2019-02-06T01:01:47.187Z,3.08
2019-02-06T01:02:47.163Z,3.07
2019-02-06T01:03:47.156Z,3.14
2019-02-06T01:04:47.157Z,3.09
2019-02-06T01:05:47.139Z,3.11
2019-02-06T01:06:47.147Z,3.05
2019-02-06T01:07:47.116Z,2.99
2019-02-06T01:08:47.135Z,3.08
2019-02-06T01:09:47.122Z,3.11
2019-02-06T01:10:47.082Z,3.07
2019-02-06T01:11:47.081Z,3.11
2019-02-06T01:12:47.068Z,3.07
2019-02-06T01:13:47.056Z,3.05
2019-02-06T01:14:47.031Z,3.12
2019-02-06T01:15:47.076Z,3.11
2019-02-06T01:16:47.047Z,3.15
2019-02-06T01:17:47.062Z,3.15
2019-02-06T01:18:47.015Z,3.05
2019-02-06T01:19:47.003Z,3.07
2019-02-06T01:20:47.010Z,3.05
2019-02-06T01:21:46.956Z,3.12
2019-02-06T01:22:47.046Z,3.17
2019-02-06T01:23:46.967Z,3.08
2019-02-06T01:24:46.957Z,3.04
2019-02-06T01:25:46.936Z,3.00
2019-02-06T01:26:46.891Z,3.09
2019-02-06T01:27:46.875Z,3.00
2019-02-06T01:28:46.967Z,3.07
2019-02-06T01:29:46.871Z,3.09
2019-02-06T01:30:46.864Z,3.05
2019-02-06T01:31:46.888Z,3.05
2019-02-06T01:32:46.858Z,3.08
2019-02-06T01:33:46.865Z,2.99
2019-02-06T01:34:46.875Z,2.94
2019-02-06T01:35:49.906Z,3.08
2019-02-06T01:36:46.855Z,3.02
2019-02-06T01:37:46.791Z,3.04
2019-02-06T01:38:46.770Z,2.97
2019-02-06T01:39:46.884Z,3.08
2019-02-06T01:40:46.749Z,3.08
2019-02-06T01:41:46.757Z,2.97
2019-02-06T01:42:46.760Z,2.94
2019-02-06T01:43:46.722Z,3.00
2019-02-06T01:44:46.710Z,2.91
2019-02-06T01:45:46.731Z,2.97
2019-02-06T01:46:46.682Z,2.91
2019-02-06T01:47:46.657Z,2.93
2019-02-06T01:48:46.702Z,2.96
2019-02-06T01:49:46.653Z,2.93
2019-02-06T01:50:46.666Z,2.82
2019-02-06T01:51:47.418Z,2.82
2019-02-06T01:52:46.611Z,2.78
2019-02-06T01:53:46.596Z,2.82
2019-02-06T01:54:46.674Z,2.81
2019-02-06T01:55:46.606Z,2.82
2019-02-06T01:56:46.588Z,2.76
2019-02-06T01:57:46.569Z,2.79
2019-02-06T01:58:46.633Z,2.78
2019-02-06T01:59:46.558Z,2.79
2019-02-06T02:00:46.538Z,2.75
2019-02-06T02:01:46.521Z,2.71
2019-02-06T02:02:46.523Z,2.73
2019-02-06T02:03:46.485Z,2.75
2019-02-06T02:04:46.522Z,2.75
2019-02-06T02:05:46.485Z,2.71
2019-02-06T02:06:46.459Z,2.75
2019-02-06T02:07:46.466Z,2.71
2019-02-06T02:08:46.441Z,2.69
2019-02-06T02:09:46.448Z,2.72
2019-02-06T02:10:46.425Z,2.71
2019-02-06T02:11:46.444Z,2.71
2019-02-06T02:12:46.449Z,2.72
2019-02-06T02:13:46.397Z,2.72
2019-02-06T02:14:46.380Z,2.68
2019-02-06T02:15:46.431Z,2.75
2019-02-06T02:16:46.345Z,2.71
2019-02-06T02:17:46.462Z,2.71
2019-02-06T02:18:46.325Z,2.72
2019-02-06T02:19:46.337Z,2.68
2019-02-06T02:20:46.324Z,2.71
2019-02-06T02:21:46.310Z,2.69
2019-02-06T02:22:46.326Z,2.69
2019-02-06T02:23:46.277Z,2.68
2019-02-06T02:24:46.389Z,2.68
2019-02-06T02:25:46.355Z,2.75
2019-02-06T02:26:46.239Z,2.65
2019-02-06T02:27:46.236Z,2.68
2019-02-06T02:28:46.211Z,2.76
2019-02-06T02:29:46.223Z,2.75
2019-02-06T02:30:46.219Z,2.65
2019-02-06T02:31:46.271Z,2.66
2019-02-06T02:32:46.187Z,2.66
2019-02-06T02:33:46.179Z,2.61
2019-02-06T02:34:46.192Z,2.66
2019-02-06T02:35:46.157Z,2.69
2019-02-06T02:36:46.201Z,2.71
2019-02-06T02:37:46.152Z,2.61
2019-02-06T02:38:46.147Z,2.65
2019-02-06T02:39:46.115Z,2.63
2019-02-06T02:40:46.141Z,2.61
2019-02-06T02:41:46.093Z,2.58
2019-02-06T02:42:46.102Z,2.57
2019-02-06T02:43:46.075Z,2.65
2019-02-06T02:44:46.066Z,2.63
2019-02-06T02:45:46.056Z,2.63
2019-02-06T02:46:46.052Z,2.63
2019-02-06T02:47:46.026Z,2.61
2019-02-06T02:48:46.035Z,2.63
2019-02-06T02:49:45.985Z,2.69
2019-02-06T02:50:46.225Z,2.58
2019-02-06T02:51:46.014Z,2.66
2019-02-06T02:52:45.972Z,2.60
2019-02-06T02:53:45.975Z,2.69
2019-02-06T02:54:45.978Z,2.75
2019-02-06T02:55:45.940Z,2.69
2019-02-06T02:56:45.981Z,2.72
2019-02-06T02:57:45.918Z,2.65
2019-02-06T02:58:46.082Z,2.71
2019-02-06T02:59:45.898Z,2.68
2019-02-06T03:00:45.914Z,2.68
2019-02-06T03:01:45.936Z,2.72
2019-02-06T03:02:45.858Z,2.71
2019-02-06T03:03:45.899Z,2.73
2019-02-06T03:04:45.842Z,2.73
2019-02-06T03:05:45.915Z,2.72
2019-02-06T03:06:45.852Z,2.71
2019-02-06T03:07:45.832Z,2.68
2019-02-06T03:08:45.799Z,2.71
2019-02-06T03:09:45.811Z,2.68
2019-02-06T03:10:45.796Z,2.76
2019-02-06T03:11:45.997Z,2.69
2019-02-06T03:12:45.788Z,2.72
2019-02-06T03:13:45.734Z,2.71
2019-02-06T03:14:45.733Z,2.78
2019-02-06T03:15:45.720Z,2.69
2019-02-06T03:16:45.727Z,2.73
2019-02-06T03:17:45.737Z,2.72
2019-02-06T03:18:45.720Z,2.69
2019-02-06T03:19:45.676Z,2.76
2019-02-06T03:20:45.690Z,2.68
2019-02-06T03:21:45.674Z,2.69
2019-02-06T03:22:45.704Z,2.86
2019-02-06T03:23:45.652Z,2.84
2019-02-06T03:24:45.621Z,2.76
2019-02-06T03:25:45.604Z,2.79
2019-02-06T03:26:45.625Z,2.87
2019-02-06T03:27:45.585Z,2.84
2019-02-06T03:28:45.578Z,2.78
2019-02-06T03:29:45.593Z,2.78
2019-02-06T03:30:45.616Z,2.79
2019-02-06T03:31:45.539Z,2.79
2019-02-06T03:32:45.587Z,2.87
2019-02-06T03:33:45.518Z,2.84
2019-02-06T03:34:45.509Z,2.79
2019-02-06T03:35:45.548Z,2.78
2019-02-06T03:36:45.496Z,2.84
2019-02-06T03:37:45.534Z,2.86
2019-02-06T03:38:45.462Z,2.79
2019-02-06T03:39:45.485Z,2.84
2019-02-06T03:40:45.454Z,2.78
2019-02-06T03:41:45.438Z,2.82
2019-02-06T03:42:45.427Z,2.84
2019-02-06T03:43:45.446Z,2.84
2019-02-06T03:44:45.427Z,2.89
2019-02-06T03:45:45.371Z,2.81
2019-02-06T03:46:45.398Z,2.93
2019-02-06T03:47:45.377Z,2.82
2019-02-06T03:48:45.354Z,2.84
2019-02-06T03:49:45.437Z,2.91
2019-02-06T03:50:45.335Z,2.89
2019-02-06T03:51:45.355Z,2.86
2019-02-06T03:52:45.339Z,2.78
2019-02-06T03:53:45.359Z,2.79
2019-02-06T03:54:45.451Z,2.81
2019-02-06T03:55:45.326Z,2.76
2019-02-06T03:56:45.268Z,2.82
2019-02-06T03:57:45.265Z,2.89
2019-02-06T03:58:45.312Z,2.81
2019-02-06T03:59:45.238Z,2.79
2019-02-06T04:00:45.204Z,2.78
2019-02-06T04:01:45.217Z,2.76
2019-02-06T04:02:45.233Z,2.79
2019-02-06T04:03:45.225Z,2.78
2019-02-06T04:04:45.180Z,2.87
2019-02-06T04:05:45.149Z,2.87
2019-02-06T04:06:53.538Z,2.93
2019-02-06T04:07:46.145Z,2.87
2019-02-06T04:08:45.132Z,2.79
2019-02-06T04:09:45.212Z,2.86
2019-02-06T04:10:45.132Z,2.82
2019-02-06T04:11:45.122Z,2.87
2019-02-06T04:12:45.094Z,2.82
2019-02-06T04:13:45.054Z,2.86
2019-02-06T04:14:45.176Z,2.86
2019-02-06T04:15:45.088Z,2.81
2019-02-06T04:16:45.130Z,2.82
2019-02-06T04:17:45.047Z,2.82
2019-02-06T04:18:45.045Z,2.84
2019-02-06T04:19:45.286Z,2.81
2019-02-06T04:20:44.999Z,2.81
2019-02-06T04:23:04.955Z,2.79
2019-02-06T04:24:01.801Z,2.84
2019-02-06T04:25:01.880Z,2.72
2019-02-06T04:26:01.781Z,2.87
2019-02-06T04:27:01.786Z,2.71
2019-02-06T04:28:01.788Z,2.69
2019-02-06T04:29:01.789Z,2.79
2019-02-06T04:30:01.756Z,2.66
2019-02-06T04:31:01.724Z,2.71
2019-02-06T04:32:01.758Z,2.71
2019-02-06T04:33:01.708Z,2.66
2019-02-06T04:34:01.702Z,2.69
2019-02-06T04:35:01.691Z,2.78
2019-02-06T04:36:01.717Z,2.71
2019-02-06T04:37:06.638Z,2.71
2019-02-06T04:38:02.682Z,2.72
2019-02-06T04:39:01.650Z,2.69
2019-02-06T04:40:01.636Z,2.72
2019-02-06T04:41:01.624Z,2.72
2019-02-06T04:42:01.613Z,2.75
2019-02-06T04:43:01.595Z,2.72
2019-02-06T04:44:01.612Z,2.73
2019-02-06T04:45:01.608Z,2.71
2019-02-06T04:46:01.575Z,2.69
2019-02-06T04:47:01.582Z,2.72
2019-02-06T04:48:01.536Z,2.73
2019-02-06T04:49:01.540Z,2.68
2019-02-06T04:50:01.521Z,2.68
2019-02-06T04:51:01.551Z,2.73
2019-02-06T04:52:01.517Z,2.65
2019-02-06T04:53:01.522Z,2.75
2019-02-06T04:54:01.485Z,2.73
2019-02-06T04:55:01.470Z,2.65
2019-02-06T04:56:01.517Z,2.66
2019-02-06T04:57:01.442Z,2.68
2019-02-06T04:58:01.411Z,2.68
2019-02-06T04:59:01.465Z,2.68
2019-02-06T05:00:01.455Z,2.63
2019-02-06T05:01:01.395Z,2.73
2019-02-06T05:02:01.391Z,2.66
2019-02-06T05:03:01.421Z,2.61
2019-02-06T05:04:01.371Z,2.58
2019-02-06T05:05:01.405Z,2.61
2019-02-06T05:06:01.352Z,2.60
2019-02-06T05:07:01.329Z,2.61
2019-02-06T05:08:01.318Z,2.53
2019-02-06T05:09:01.309Z,2.58
2019-02-06T05:10:01.304Z,2.61
2019-02-06T05:11:01.358Z,2.61
2019-02-06T05:12:01.291Z,2.60
2019-02-06T05:13:01.248Z,2.66
2019-02-06T05:14:01.234Z,2.53
2019-02-06T05:15:01.272Z,2.48
2019-02-06T05:16:01.217Z,2.55
2019-02-06T05:17:01.287Z,2.50
2019-02-06T05:18:01.218Z,2.51
2019-02-06T05:19:01.226Z,2.54
2019-02-06T05:20:01.188Z,2.53
2019-02-06T05:21:01.223Z,2.57
2019-02-06T05:22:01.155Z,2.53
2019-02-06T05:23:01.196Z,2.55
2019-02-06T05:24:01.160Z,2.54
2019-02-06T05:25:01.134Z,2.53
2019-02-06T05:26:01.195Z,2.53
2019-02-06T05:27:01.130Z,2.63
2019-02-06T05:28:01.139Z,2.66
2019-02-06T05:29:01.171Z,2.69
2019-02-06T05:30:01.066Z,2.60
2019-02-06T05:31:01.112Z,2.65
2019-02-06T05:32:01.138Z,2.71
2019-02-06T05:33:01.096Z,2.66
2019-02-06T05:34:01.114Z,2.68
2019-02-06T05:35:01.035Z,2.72
2019-02-06T05:36:01.072Z,2.75
2019-02-06T05:37:01.108Z,2.72
2019-02-06T05:38:01.025Z,2.65
2019-02-06T05:39:01.100Z,2.73
2019-02-06T05:40:01.000Z,2.69
2019-02-06T05:41:00.979Z,2.72
2019-02-06T05:42:01.001Z,2.72
2019-02-06T05:43:00.962Z,2.73
2019-02-06T05:44:00.921Z,2.69
2019-02-06T05:45:00.942Z,2.71
2019-02-06T05:46:00.923Z,2.69
2019-02-06T05:47:01.044Z,2.72
2019-02-06T05:48:00.887Z,2.72
2019-02-06T05:49:00.893Z,2.75
2019-02-06T05:50:00.905Z,2.65
2019-02-06T05:51:00.870Z,2.81
2019-02-06T05:52:00.838Z,2.72
2019-02-06T05:53:00.852Z,2.78
2019-02-06T05:54:00.815Z,2.73
2019-02-06T05:55:04.278Z,2.76
2019-02-06T05:56:00.793Z,2.79
2019-02-06T05:57:00.819Z,2.69
2019-02-06T05:58:00.790Z,2.79
2019-02-06T05:59:00.770Z,2.79
2019-02-06T06:00:01.225Z,2.86
2019-02-06T06:01:00.736Z,2.72
2019-02-06T06:02:00.842Z,2.68
2019-02-06T06:03:00.737Z,2.79
2019-02-06T06:04:00.722Z,2.79
2019-02-06T06:05:00.713Z,2.68
2019-02-06T06:06:00.722Z,2.79
2019-02-06T06:07:00.694Z,2.69
2019-02-06T06:08:00.689Z,2.66
2019-02-06T06:09:00.646Z,2.66
2019-02-06T06:10:00.688Z,2.68
2019-02-06T06:11:00.646Z,2.87
2019-02-06T06:12:00.676Z,2.81
2019-02-06T06:13:00.601Z,2.71
2019-02-06T06:14:00.571Z,2.66
2019-02-06T06:15:00.585Z,2.75
2019-02-06T06:16:00.549Z,2.72
2019-02-06T06:17:00.548Z,2.72
2019-02-06T06:18:00.591Z,2.75
2019-02-06T06:19:00.533Z,2.69
2019-02-06T06:20:00.526Z,2.72
2019-02-06T06:21:00.517Z,2.71
2019-02-06T06:22:00.538Z,2.68
2019-02-06T06:23:00.485Z,2.76
2019-02-06T06:24:00.473Z,2.68
2019-02-06T06:25:00.463Z,2.76
2019-02-06T06:26:00.458Z,2.75
2019-02-06T06:27:00.448Z,2.82
2019-02-06T06:28:00.510Z,2.82
2019-02-06T06:29:00.418Z,2.75
2019-02-06T06:30:00.487Z,2.79
2019-02-06T06:31:00.402Z,2.73
2019-02-06T06:32:00.390Z,2.75
2019-02-06T06:33:00.404Z,2.84
2019-02-06T06:34:00.361Z,2.82
2019-02-06T06:35:00.366Z,2.82
2019-02-06T06:36:00.343Z,2.79
2019-02-06T06:37:00.332Z,2.82
2019-02-06T06:38:02.214Z,2.81
2019-02-06T06:39:00.299Z,2.81
2019-02-06T06:40:00.430Z,2.76
2019-02-06T06:41:00.286Z,2.73
2019-02-06T06:42:00.277Z,2.71
2019-02-06T06:43:00.299Z,2.66
2019-02-06T06:44:00.296Z,2.69
2019-02-06T06:45:00.246Z,2.63
2019-02-06T06:46:00.251Z,2.65
2019-02-06T06:47:00.203Z,2.66
2019-02-06T06:48:00.293Z,2.69
2019-02-06T06:49:00.268Z,2.69
2019-02-06T06:50:00.358Z,2.69
2019-02-06T06:51:00.174Z,2.72
2019-02-06T06:52:00.177Z,2.69
2019-02-06T06:53:00.236Z,2.76
2019-02-06T06:54:00.150Z,2.72
2019-02-06T06:55:00.229Z,2.73
2019-02-06T06:56:00.125Z,2.65
2019-02-06T06:57:00.115Z,2.72
2019-02-06T06:58:00.175Z,2.76
2019-02-06T06:59:00.148Z,2.72
2019-02-06T07:00:00.133Z,2.71
2019-02-06T07:01:00.084Z,2.71
2019-02-06T07:02:00.096Z,2.71
2019-02-06T07:03:00.088Z,2.73
2019-02-06T07:04:00.040Z,2.68
2019-02-06T07:05:00.011Z,2.66
2019-02-06T07:06:00.010Z,2.71
2019-02-06T07:07:00.035Z,2.66
2019-02-06T07:08:09.231Z,2.72
2019-02-06T07:09:01.005Z,2.76
2019-02-06T07:09:59.964Z,2.71
2019-02-06T07:10:59.958Z,2.60
2019-02-06T07:11:59.974Z,2.73
2019-02-06T07:13:00.004Z,2.71
2019-02-06T07:13:59.958Z,2.69
2019-02-06T07:15:00.434Z,2.73
2019-02-06T07:16:00.487Z,2.79
2019-02-06T07:16:59.892Z,2.79
2019-02-06T07:17:59.890Z,2.72
2019-02-06T07:18:59.889Z,2.69
2019-02-06T07:19:59.868Z,2.69
2019-02-06T07:21:01.592Z,2.81
2019-02-06T07:21:59.814Z,2.79
2019-02-06T07:22:59.851Z,2.71
2019-02-06T07:23:59.821Z,2.68
2019-02-06T07:24:59.837Z,2.87
2019-02-06T07:25:59.786Z,2.72
2019-02-06T07:26:59.757Z,2.76
2019-02-06T07:27:59.766Z,2.69
2019-02-06T07:28:59.766Z,2.73
2019-02-06T07:29:59.825Z,2.87
2019-02-06T07:30:59.742Z,2.68
2019-02-06T07:31:59.732Z,2.78
2019-02-06T07:32:59.727Z,2.78
2019-02-06T07:33:59.730Z,2.79
2019-02-06T07:34:59.724Z,2.81
2019-02-06T07:35:59.676Z,2.82
2019-02-06T07:36:59.686Z,2.79
2019-02-06T07:37:59.672Z,2.81
2019-02-06T07:38:59.641Z,2.78
2019-02-06T07:39:59.751Z,2.91
2019-02-06T07:40:59.658Z,2.87
2019-02-06T07:41:59.657Z,2.94
2019-02-06T07:42:59.643Z,2.90
2019-02-06T07:43:59.596Z,2.82
2019-02-06T07:44:59.626Z,2.93
2019-02-06T07:45:59.613Z,2.90
2019-02-06T07:46:59.556Z,3.00
2019-02-06T07:47:59.545Z,2.90
2019-02-06T07:48:59.576Z,3.04
2019-02-06T07:49:59.553Z,2.97
2019-02-06T07:50:59.516Z,2.96
2019-02-06T07:51:59.527Z,3.08
2019-02-06T07:52:59.575Z,3.05
2019-02-06T07:53:59.476Z,3.15
2019-02-06T07:54:59.464Z,3.12
2019-02-06T07:55:59.494Z,3.05
2019-02-06T07:56:59.442Z,3.11
2019-02-06T07:57:59.497Z,3.12
2019-02-06T07:58:59.422Z,3.12
2019-02-06T07:59:59.475Z,3.20
2019-02-06T08:00:59.436Z,3.15
2019-02-06T08:01:59.369Z,3.14
2019-02-06T08:02:59.376Z,3.29
2019-02-06T08:03:59.367Z,3.25
2019-02-06T08:04:59.395Z,3.20
2019-02-06T08:05:59.378Z,3.20
2019-02-06T08:06:59.426Z,3.18
2019-02-06T08:07:59.325Z,3.23
2019-02-06T08:08:59.292Z,3.32
2019-02-06T08:09:59.301Z,3.20
2019-02-06T08:10:59.322Z,3.32
2019-02-06T08:11:59.349Z,3.33
2019-02-06T08:12:59.269Z,3.26
2019-02-06T08:13:59.276Z,3.30
2019-02-06T08:14:59.270Z,3.33
2019-02-06T08:15:59.242Z,3.35
2019-02-06T08:16:59.206Z,3.32
2019-02-06T08:17:59.303Z,3.41
2019-02-06T08:18:59.229Z,3.42
2019-02-06T08:19:59.215Z,3.48
2019-02-06T08:20:59.191Z,3.51
2019-02-06T08:21:59.198Z,3.48
2019-02-06T08:22:59.173Z,3.48
2019-02-06T08:23:59.214Z,3.54
2019-02-06T08:24:59.118Z,3.52
2019-02-06T08:25:59.101Z,3.49
2019-02-06T08:26:59.124Z,3.49
2019-02-06T08:27:59.137Z,3.52
2019-02-06T08:28:59.093Z,3.55
2019-02-06T08:29:59.113Z,3.52
2019-02-06T08:30:59.091Z,3.52
2019-02-06T08:31:59.082Z,3.52
2019-02-06T08:32:59.056Z,3.63
2019-02-06T08:33:59.065Z,3.66
2019-02-06T08:34:59.004Z,3.70
2019-02-06T08:35:59.017Z,3.67
2019-02-06T08:36:59.060Z,3.69
2019-02-06T08:37:58.996Z,3.67
2019-02-06T08:38:58.998Z,3.66
2019-02-06T08:39:58.971Z,3.67
2019-02-06T08:40:58.965Z,3.69
2019-02-06T08:41:59.061Z,3.73
2019-02-06T08:42:58.958Z,3.74
2019-02-06T08:44:01.734Z,3.81
2019-02-06T08:44:58.912Z,3.78
2019-02-06T08:45:58.945Z,3.72
2019-02-06T08:46:58.906Z,3.82
2019-02-06T08:47:58.922Z,3.81
2019-02-06T08:48:59.018Z,3.84
2019-02-06T08:49:58.872Z,3.88
2019-02-06T08:50:58.863Z,3.94
2019-02-06T08:51:58.856Z,3.90
2019-02-06T08:52:59.053Z,3.88
2019-02-06T08:53:58.887Z,3.99
2019-02-06T08:54:58.802Z,3.90
2019-02-06T08:55:58.899Z,4.00
2019-02-06T08:56:58.823Z,4.00
2019-02-06T08:57:58.757Z,3.98
2019-02-06T08:58:58.805Z,4.00
2019-02-06T08:59:58.784Z,4.02
2019-02-06T09:00:58.790Z,4.05
2019-02-06T09:01:58.735Z,4.05
2019-02-06T09:02:58.757Z,4.05
2019-02-06T09:03:58.707Z,4.13
2019-02-06T09:04:58.704Z,4.12
2019-02-06T09:05:58.702Z,4.03
2019-02-06T09:06:58.734Z,4.21
2019-02-06T09:07:58.715Z,4.21
2019-02-06T09:08:59.998Z,4.23
2019-02-06T09:09:58.638Z,4.23
2019-02-06T09:10:58.619Z,4.24
2019-02-06T09:11:58.632Z,4.23
2019-02-06T09:12:58.657Z,4.26
2019-02-06T09:13:58.632Z,4.27
2019-02-06T09:14:58.602Z,4.36
2019-02-06T09:15:58.561Z,4.34
2019-02-06T09:16:58.573Z,4.31
2019-02-06T09:17:58.688Z,4.38
2019-02-06T09:18:58.571Z,4.46
2019-02-06T09:19:58.522Z,4.48
2019-02-06T09:20:58.584Z,4.53
2019-02-06T09:21:58.492Z,4.56
2019-02-06T09:22:58.536Z,4.46
2019-02-06T09:23:58.532Z,4.46
2019-02-06T09:24:58.462Z,4.56
2019-02-06T09:25:58.473Z,4.56
2019-02-06T09:26:58.460Z,4.54
2019-02-06T09:27:58.761Z,4.60
2019-02-06T09:28:58.418Z,4.56
2019-02-06T09:29:58.430Z,4.56
2019-02-06T09:30:58.473Z,4.66
2019-02-06T09:31:59.420Z,4.63
2019-02-06T09:32:58.411Z,4.66
2019-02-06T09:33:58.361Z,4.67
2019-02-06T09:34:58.416Z,4.72
2019-02-06T09:35:58.363Z,4.72
2019-02-06T09:36:58.380Z,4.72
2019-02-06T09:37:58.336Z,4.67
2019-02-06T09:38:58.331Z,4.74
2019-02-06T09:39:58.297Z,4.79
2019-02-06T09:40:58.295Z,4.78
2019-02-06T09:41:58.297Z,4.93
2019-02-06T09:42:58.320Z,4.83
2019-02-06T09:43:58.457Z,4.85
2019-02-06T09:44:58.260Z,4.89
2019-02-06T09:45:58.298Z,4.94
2019-02-06T09:46:58.221Z,4.85
2019-02-06T09:47:58.269Z,4.93
2019-02-06T09:48:58.257Z,4.94
2019-02-06T09:49:58.197Z,4.91
2019-02-06T09:50:58.250Z,4.96
2019-02-06T09:51:58.240Z,4.91
2019-02-06T09:52:58.172Z,4.97
2019-02-06T09:53:58.231Z,5.03
2019-02-06T09:54:58.164Z,5.06
2019-02-06T09:55:58.134Z,5.03
2019-02-06T09:56:58.134Z,5.03
2019-02-06T09:57:58.119Z,5.11
2019-02-06T09:58:58.082Z,5.06
2019-02-06T09:59:58.121Z,5.11
2019-02-06T10:00:58.088Z,5.11
2019-02-06T10:01:58.084Z,5.12
2019-02-06T10:02:58.068Z,5.15
2019-02-06T10:03:58.069Z,5.11
2019-02-06T10:04:58.048Z,5.12
2019-02-06T10:05:58.052Z,5.19
2019-02-06T10:06:58.013Z,5.11
2019-02-06T10:07:58.036Z,5.12
2019-02-06T10:08:58.001Z,5.22
2019-02-06T10:09:58.146Z,5.18
2019-02-06T10:10:58.208Z,5.12
2019-02-06T10:11:57.963Z,5.14
2019-02-06T10:12:58.224Z,5.19
2019-02-06T10:13:57.941Z,5.11
2019-02-06T10:14:57.913Z,5.18
2019-02-06T10:15:57.921Z,5.19
2019-02-06T10:16:57.969Z,5.29
2019-02-06T10:17:57.890Z,5.25
2019-02-06T10:18:57.866Z,5.25
2019-02-06T10:19:58.171Z,5.25
2019-02-06T10:20:57.942Z,5.29
2019-02-06T10:21:57.897Z,5.22
2019-02-06T10:22:57.874Z,5.27
2019-02-06T10:23:57.836Z,5.29
2019-02-06T10:24:57.803Z,5.19
2019-02-06T10:25:57.807Z,5.29
2019-02-06T10:26:57.831Z,5.25
2019-02-06T10:27:57.793Z,5.24
2019-02-06T10:28:57.777Z,5.25
2019-02-06T10:29:57.757Z,5.30
2019-02-06T10:30:57.752Z,5.34
2019-02-06T10:31:57.771Z,5.34
2019-02-06T10:32:57.737Z,5.33
2019-02-06T10:33:57.730Z,5.43
2019-02-06T10:34:57.815Z,5.32
2019-02-06T10:35:57.772Z,5.41
2019-02-06T10:36:57.713Z,5.39
2019-02-06T10:37:57.740Z,5.48
2019-02-06T10:38:57.662Z,5.43
2019-02-06T10:39:58.703Z,5.44
2019-02-06T10:40:57.665Z,5.50
2019-02-06T10:41:57.719Z,5.52
2019-02-06T10:42:57.672Z,5.52
2019-02-06T10:43:57.635Z,5.51
2019-02-06T10:44:57.601Z,5.55
2019-02-06T10:45:57.586Z,5.51
2019-02-06T10:46:57.562Z,5.52
2019-02-06T10:47:57.604Z,5.58
2019-02-06T10:48:57.598Z,5.58
2019-02-06T10:49:57.551Z,5.59
2019-02-06T10:50:58.389Z,5.66
2019-02-06T10:51:57.520Z,5.65
2019-02-06T10:52:57.577Z,5.57
2019-02-06T10:53:57.502Z,5.65
2019-02-06T10:54:57.469Z,5.58
2019-02-06T10:55:57.481Z,5.62
2019-02-06T10:56:57.543Z,5.55
2019-02-06T10:57:57.433Z,5.67
2019-02-06T10:58:57.515Z,5.66
2019-02-06T10:59:57.442Z,5.70
2019-02-06T11:00:57.424Z,5.65
2019-02-06T11:01:57.406Z,5.62
2019-02-06T11:02:57.444Z,5.67
2019-02-06T11:03:57.534Z,5.72
2019-02-06T11:04:57.362Z,5.77
2019-02-06T11:05:57.370Z,5.80
2019-02-06T11:06:57.398Z,5.77
2019-02-06T11:07:57.332Z,5.76
2019-02-06T11:08:57.344Z,5.82
2019-02-06T11:09:57.339Z,5.80
2019-02-06T11:10:57.325Z,5.79
2019-02-06T11:11:57.307Z,5.80
2019-02-06T11:12:57.298Z,5.88
2019-02-06T11:13:57.274Z,5.82
2019-02-06T11:14:57.334Z,5.85
2019-02-06T11:15:57.287Z,5.88
2019-02-06T11:16:57.379Z,5.91
2019-02-06T11:17:57.473Z,5.88
2019-02-06T11:18:57.228Z,5.97
2019-02-06T11:19:57.234Z,5.93
2019-02-06T11:20:57.215Z,5.95
2019-02-06T11:21:57.202Z,5.95
2019-02-06T11:22:57.166Z,6.02
2019-02-06T11:23:57.218Z,6.13
2019-02-06T11:24:57.323Z,6.00
2019-02-06T11:25:57.209Z,6.02
2019-02-06T11:26:57.172Z,6.08
2019-02-06T11:27:57.155Z,6.06
2019-02-06T11:28:57.132Z,6.03
2019-02-06T11:29:57.155Z,6.12
2019-02-06T11:30:57.454Z,6.12
2019-02-06T11:31:57.070Z,6.12
2019-02-06T11:32:57.082Z,6.08
2019-02-06T11:33:57.099Z,6.12
2019-02-06T11:34:57.098Z,6.09
2019-02-06T11:35:57.030Z,6.05
2019-02-06T11:36:57.065Z,6.21
2019-02-06T11:37:57.004Z,6.15
2019-02-06T11:38:57.043Z,6.18
2019-02-06T11:39:58.270Z,6.12
2019-02-06T11:40:57.035Z,6.12
2019-02-06T11:41:56.973Z,6.11
2019-02-06T11:42:56.994Z,6.11
2019-02-06T11:43:57.005Z,6.13
2019-02-06T11:44:56.977Z,6.13
2019-02-06T11:45:56.959Z,6.28
2019-02-06T11:46:56.927Z,6.15
2019-02-06T11:47:56.946Z,6.21
2019-02-06T11:48:56.887Z,6.19
2019-02-06T11:49:56.930Z,6.27
2019-02-06T11:50:56.919Z,6.21
2019-02-06T11:51:56.885Z,6.24
2019-02-06T11:52:56.887Z,6.21
2019-02-06T11:53:56.871Z,6.21
2019-02-06T11:54:56.864Z,6.34
2019-02-06T11:55:56.852Z,6.28
2019-02-06T11:56:56.840Z,6.40
2019-02-06T11:57:56.813Z,6.32
2019-02-06T11:58:56.812Z,6.31
2019-02-06T11:59:56.794Z,6.35
2019-02-06T12:00:56.845Z,6.31
2019-02-06T12:01:56.793Z,6.35
2019-02-06T12:02:56.760Z,6.34
2019-02-06T12:03:56.758Z,6.34
2019-02-06T12:04:56.737Z,6.45
2019-02-06T12:05:56.749Z,6.43
2019-02-06T12:06:56.707Z,6.42
2019-02-06T12:07:56.682Z,6.40
2019-02-06T12:08:56.713Z,6.40
2019-02-06T12:09:56.718Z,6.43
2019-02-06T12:10:56.741Z,6.37
2019-02-06T12:11:56.660Z,6.38
2019-02-06T12:12:56.674Z,6.40
2019-02-06T12:13:56.638Z,6.42
2019-02-06T12:14:56.612Z,6.47
2019-02-06T12:15:56.671Z,6.45
2019-02-06T12:16:56.613Z,6.52
2019-02-06T12:17:56.598Z,6.40
2019-02-06T12:18:56.576Z,6.42
2019-02-06T12:19:56.551Z,6.55
2019-02-06T12:20:56.593Z,6.56
2019-02-06T12:21:56.562Z,6.46
2019-02-06T12:22:56.573Z,6.56
2019-02-06T12:23:56.643Z,6.45
2019-02-06T12:24:56.537Z,6.60
2019-02-06T12:25:56.556Z,6.47
2019-02-06T12:26:56.519Z,6.52
2019-02-06T12:27:56.491Z,6.55
2019-02-06T12:28:56.500Z,6.56
2019-02-06T12:29:56.494Z,6.49
2019-02-06T12:30:56.491Z,6.56
2019-02-06T12:31:56.479Z,6.60
2019-02-06T12:32:56.503Z,6.52
2019-02-06T12:33:56.446Z,6.61
2019-02-06T12:34:56.405Z,6.67
2019-02-06T12:35:56.410Z,6.60
2019-02-06T12:36:56.390Z,6.64
2019-02-06T12:37:56.435Z,6.63
2019-02-06T12:38:56.368Z,6.65
2019-02-06T12:39:56.357Z,6.63
2019-02-06T12:40:56.342Z,6.67
2019-02-06T12:41:56.382Z,6.61
2019-02-06T12:42:56.319Z,6.60
2019-02-06T12:43:56.330Z,6.65
2019-02-06T12:44:58.974Z,6.64
2019-02-06T12:45:56.278Z,6.73
2019-02-06T12:46:56.617Z,6.73
2019-02-06T12:47:56.268Z,6.74
2019-02-06T12:48:56.279Z,6.74
2019-02-06T12:49:56.227Z,6.74
2019-02-06T12:50:56.220Z,6.73
2019-02-06T12:51:56.257Z,6.73
2019-02-06T12:52:57.485Z,6.75
2019-02-06T12:53:56.214Z,6.79
2019-02-06T12:54:56.189Z,6.79
2019-02-06T12:55:56.178Z,6.82
2019-02-06T12:56:56.151Z,6.81
2019-02-06T12:57:56.190Z,6.89
2019-02-06T12:58:56.152Z,6.88
2019-02-06T12:59:56.131Z,6.85
2019-02-06T13:00:56.225Z,6.88
2019-02-06T13:01:56.126Z,6.93
2019-02-06T13:02:59.700Z,6.88
2019-02-06T13:03:56.092Z,6.85
2019-02-06T13:04:56.111Z,6.85
2019-02-06T13:05:56.075Z,6.88
2019-02-06T13:06:56.064Z,6.91
2019-02-06T13:07:56.047Z,6.91
2019-02-06T13:08:56.067Z,6.91
2019-02-06T13:09:56.024Z,6.93
2019-02-06T13:10:56.025Z,7.00
2019-02-06T13:11:56.010Z,6.91
2019-02-06T13:12:56.035Z,6.96
2019-02-06T13:13:55.978Z,7.01
2019-02-06T13:14:55.969Z,6.97
2019-02-06T13:15:55.960Z,7.01
2019-02-06T13:16:55.954Z,7.01
2019-02-06T13:17:55.950Z,6.99
2019-02-06T13:18:55.959Z,7.04
2019-02-06T13:19:55.931Z,7.01